sensor_id;sensor_type;location;lat;lon;timestamp;P1;durP1;ratioP1;P2;durP2;ratioP2
75935;SDS011;64614;32.062;34.834;2023-09-30T00:02:15;16.42;;;6.20;;
75935;SDS011;64614;32.062;34.834;2023-09-30T00:04:40;14.95;;;6.40;;
75935;SDS011;64614;32.062;34.834;2023-09-30T00:07:06;16.90;;;6.63;;
75935;SDS011;64614;32.062;34.834;2023-09-30T00:09:32;15.75;;;7.45;;
75935;SDS011;64614;32.062;34.834;2023-09-30T00:11:57;21.00;;;8.18;;
75935;SDS011;64614;32.062;34.834;2023-09-30T00:14:24;21.33;;;8.75;;
75935;SDS011;64614;32.062;34.834;2023-09-30T00:16:50;19.10;;;8.75;;
75935;SDS011;64614;32.062;34.834;2023-09-30T00:19:16;24.90;;;9.55;;
75935;SDS011;64614;32.062;34.834;2023-09-30T00:21:42;24.83;;;9.70;;
75935;SDS011;64614;32.062;34.834;2023-09-30T00:24:07;22.73;;;10.25;;
75935;SDS011;64614;32.062;34.834;2023-09-30T00:26:34;25.98;;;10.90;;
75935;SDS011;64614;32.062;34.834;2023-09-30T00:29:00;23.90;;;10.55;;
75935;SDS011;64614;32.062;34.834;2023-09-30T00:31:29;23.05;;;10.60;;
75935;SDS011;64614;32.062;34.834;2023-09-30T00:33:55;23.95;;;10.55;;
75935;SDS011;64614;32.062;34.834;2023-09-30T00:36:21;23.48;;;10.23;;
75935;SDS011;64614;32.062;34.834;2023-09-30T00:38:47;22.02;;;10.43;;
75935;SDS011;64614;32.062;34.834;2023-09-30T00:41:12;22.55;;;10.13;;
75935;SDS011;64614;32.062;34.834;2023-09-30T00:43:39;24.40;;;10.70;;
75935;SDS011;64614;32.062;34.834;2023-09-30T00:48:53;25.88;;;10.52;;
75935;SDS011;64614;32.062;34.834;2023-09-30T00:51:19;25.50;;;10.70;;
75935;SDS011;64614;32.062;34.834;2023-09-30T00:53:46;22.85;;;10.77;;
75935;SDS011;64614;32.062;34.834;2023-09-30T00:56:11;24.40;;;10.25;;
75935;SDS011;64614;32.062;34.834;2023-09-30T00:58:38;25.00;;;10.07;;
75935;SDS011;64614;32.062;34.834;2023-09-30T01:01:04;24.27;;;10.65;;
75935;SDS011;64614;32.062;34.834;2023-09-30T01:03:30;24.02;;;10.40;;
75935;SDS011;64614;32.062;34.834;2023-09-30T01:05:56;24.30;;;10.10;;
75935;SDS011;64614;32.062;34.834;2023-09-30T01:08:21;27.52;;;11.25;;
75935;SDS011;64614;32.062;34.834;2023-09-30T01:10:47;25.27;;;10.77;;
75935;SDS011;64614;32.062;34.834;2023-09-30T01:13:13;25.13;;;10.57;;
75935;SDS011;64614;32.062;34.834;2023-09-30T01:15:39;22.83;;;11.05;;
75935;SDS011;64614;32.062;34.834;2023-09-30T01:18:05;23.88;;;11.43;;
75935;SDS011;64614;32.062;34.834;2023-09-30T01:20:31;21.40;;;10.98;;
75935;SDS011;64614;32.062;34.834;2023-09-30T01:22:57;24.90;;;11.20;;
75935;SDS011;64614;32.062;34.834;2023-09-30T01:25:23;21.85;;;11.30;;
75935;SDS011;64614;32.062;34.834;2023-09-30T01:27:49;23.85;;;11.63;;
75935;SDS011;64614;32.062;34.834;2023-09-30T01:30:19;22.90;;;11.02;;
75935;SDS011;64614;32.062;34.834;2023-09-30T01:32:47;22.17;;;11.02;;
75935;SDS011;64614;32.062;34.834;2023-09-30T01:35:13;25.25;;;11.05;;
75935;SDS011;64614;32.062;34.834;2023-09-30T01:37:39;24.52;;;10.60;;
75935;SDS011;64614;32.062;34.834;2023-09-30T01:40:05;24.38;;;10.73;;
75935;SDS011;64614;32.062;34.834;2023-09-30T01:42:36;21.77;;;10.70;;
75935;SDS011;64614;32.062;34.834;2023-09-30T01:45:03;23.20;;;10.95;;
75935;SDS011;64614;32.062;34.834;2023-09-30T01:47:29;24.80;;;11.05;;
75935;SDS011;64614;32.062;34.834;2023-09-30T01:49:55;23.98;;;11.20;;
75935;SDS011;64614;32.062;34.834;2023-09-30T01:52:21;23.52;;;10.70;;
75935;SDS011;64614;32.062;34.834;2023-09-30T01:54:47;23.55;;;11.40;;
75935;SDS011;64614;32.062;34.834;2023-09-30T01:57:12;23.90;;;11.32;;
75935;SDS011;64614;32.062;34.834;2023-09-30T01:59:38;23.38;;;10.88;;
75935;SDS011;64614;32.062;34.834;2023-09-30T02:02:04;25.38;;;11.02;;
75935;SDS011;64614;32.062;34.834;2023-09-30T02:04:29;22.58;;;10.88;;
75935;SDS011;64614;32.062;34.834;2023-09-30T02:06:56;22.83;;;10.63;;
75935;SDS011;64614;32.062;34.834;2023-09-30T02:09:21;21.30;;;10.70;;
75935;SDS011;64614;32.062;34.834;2023-09-30T02:11:47;25.90;;;10.90;;
75935;SDS011;64614;32.062;34.834;2023-09-30T02:14:13;25.15;;;10.82;;
75935;SDS011;64614;32.062;34.834;2023-09-30T02:16:38;23.98;;;10.98;;
75935;SDS011;64614;32.062;34.834;2023-09-30T02:19:04;24.10;;;10.15;;
75935;SDS011;64614;32.062;34.834;2023-09-30T02:21:31;25.55;;;11.45;;
75935;SDS011;64614;32.062;34.834;2023-09-30T02:23:57;27.35;;;11.30;;
75935;SDS011;64614;32.062;34.834;2023-09-30T02:26:23;24.25;;;11.20;;
75935;SDS011;64614;32.062;34.834;2023-09-30T02:28:51;22.05;;;10.77;;
75935;SDS011;64614;32.062;34.834;2023-09-30T02:31:18;22.88;;;10.80;;
75935;SDS011;64614;32.062;34.834;2023-09-30T02:33:44;27.10;;;11.68;;
75935;SDS011;64614;32.062;34.834;2023-09-30T02:36:09;23.52;;;11.43;;
75935;SDS011;64614;32.062;34.834;2023-09-30T02:38:35;23.58;;;9.60;;
75935;SDS011;64614;32.062;34.834;2023-09-30T02:41:04;28.77;;;11.35;;
75935;SDS011;64614;32.062;34.834;2023-09-30T02:43:30;24.27;;;11.23;;
75935;SDS011;64614;32.062;34.834;2023-09-30T02:45:55;21.42;;;10.75;;
75935;SDS011;64614;32.062;34.834;2023-09-30T02:48:21;23.73;;;10.65;;
75935;SDS011;64614;32.062;34.834;2023-09-30T02:50:47;23.58;;;9.95;;
75935;SDS011;64614;32.062;34.834;2023-09-30T02:53:12;27.33;;;10.98;;
75935;SDS011;64614;32.062;34.834;2023-09-30T02:55:38;23.38;;;11.88;;
75935;SDS011;64614;32.062;34.834;2023-09-30T02:58:07;22.70;;;11.30;;
75935;SDS011;64614;32.062;34.834;2023-09-30T03:00:37;27.58;;;11.27;;
75935;SDS011;64614;32.062;34.834;2023-09-30T03:03:03;24.17;;;11.82;;
75935;SDS011;64614;32.062;34.834;2023-09-30T03:05:29;23.63;;;10.85;;
75935;SDS011;64614;32.062;34.834;2023-09-30T03:07:58;23.15;;;11.43;;
75935;SDS011;64614;32.062;34.834;2023-09-30T03:10:25;25.55;;;11.55;;
75935;SDS011;64614;32.062;34.834;2023-09-30T03:12:54;23.55;;;11.15;;
75935;SDS011;64614;32.062;34.834;2023-09-30T03:15:21;23.40;;;10.57;;
75935;SDS011;64614;32.062;34.834;2023-09-30T03:17:48;23.48;;;11.30;;
75935;SDS011;64614;32.062;34.834;2023-09-30T03:20:14;27.30;;;12.50;;
75935;SDS011;64614;32.062;34.834;2023-09-30T03:22:44;20.75;;;11.25;;
75935;SDS011;64614;32.062;34.834;2023-09-30T03:25:13;22.45;;;10.80;;
75935;SDS011;64614;32.062;34.834;2023-09-30T03:27:42;20.25;;;11.07;;
75935;SDS011;64614;32.062;34.834;2023-09-30T03:30:09;22.50;;;10.40;;
75935;SDS011;64614;32.062;34.834;2023-09-30T03:32:36;23.70;;;10.52;;
75935;SDS011;64614;32.062;34.834;2023-09-30T03:35:06;21.17;;;10.60;;
75935;SDS011;64614;32.062;34.834;2023-09-30T03:37:45;22.77;;;10.57;;
75935;SDS011;64614;32.062;34.834;2023-09-30T03:40:12;24.95;;;10.55;;
75935;SDS011;64614;32.062;34.834;2023-09-30T03:42:58;22.05;;;10.52;;
75935;SDS011;64614;32.062;34.834;2023-09-30T03:46:06;20.88;;;10.13;;
75935;SDS011;64614;32.062;34.834;2023-09-30T03:49:11;21.63;;;9.40;;
75935;SDS011;64614;32.062;34.834;2023-09-30T03:52:16;20.52;;;10.45;;
75935;SDS011;64614;32.062;34.834;2023-09-30T03:55:22;20.67;;;9.35;;
75935;SDS011;64614;32.062;34.834;2023-09-30T03:58:28;21.73;;;10.65;;
75935;SDS011;64614;32.062;34.834;2023-09-30T04:01:34;20.85;;;9.88;;
75935;SDS011;64614;32.062;34.834;2023-09-30T04:04:40;20.58;;;8.98;;
75935;SDS011;64614;32.062;34.834;2023-09-30T04:07:49;18.33;;;9.13;;
75935;SDS011;64614;32.062;34.834;2023-09-30T04:10:54;17.02;;;9.00;;
75935;SDS011;64614;32.062;34.834;2023-09-30T04:14:00;20.42;;;9.43;;
75935;SDS011;64614;32.062;34.834;2023-09-30T04:17:05;22.23;;;10.00;;
75935;SDS011;64614;32.062;34.834;2023-09-30T04:20:10;20.52;;;8.93;;
75935;SDS011;64614;32.062;34.834;2023-09-30T04:23:16;19.05;;;9.65;;
75935;SDS011;64614;32.062;34.834;2023-09-30T04:26:23;18.38;;;9.02;;
75935;SDS011;64614;32.062;34.834;2023-09-30T04:29:29;17.55;;;8.77;;
75935;SDS011;64614;32.062;34.834;2023-09-30T04:32:38;19.85;;;8.90;;
75935;SDS011;64614;32.062;34.834;2023-09-30T04:35:43;22.15;;;10.50;;
75935;SDS011;64614;32.062;34.834;2023-09-30T04:38:50;24.38;;;10.93;;
75935;SDS011;64614;32.062;34.834;2023-09-30T04:42:00;24.40;;;11.88;;
75935;SDS011;64614;32.062;34.834;2023-09-30T04:45:05;27.35;;;11.77;;
75935;SDS011;64614;32.062;34.834;2023-09-30T04:48:12;24.55;;;11.68;;
75935;SDS011;64614;32.062;34.834;2023-09-30T04:51:17;25.40;;;11.18;;
75935;SDS011;64614;32.062;34.834;2023-09-30T04:54:22;30.15;;;15.45;;
75935;SDS011;64614;32.062;34.834;2023-09-30T04:57:31;28.88;;;15.68;;
75935;SDS011;64614;32.062;34.834;2023-09-30T05:00:36;25.08;;;13.65;;
75935;SDS011;64614;32.062;34.834;2023-09-30T05:03:44;25.75;;;14.45;;
75935;SDS011;64614;32.062;34.834;2023-09-30T05:06:50;36.67;;;21.75;;
75935;SDS011;64614;32.062;34.834;2023-09-30T05:09:56;32.58;;;20.17;;
75935;SDS011;64614;32.062;34.834;2023-09-30T05:13:01;31.27;;;20.45;;
75935;SDS011;64614;32.062;34.834;2023-09-30T05:16:07;34.40;;;21.75;;
75935;SDS011;64614;32.062;34.834;2023-09-30T05:19:12;31.58;;;19.92;;
75935;SDS011;64614;32.062;34.834;2023-09-30T05:22:18;28.27;;;17.65;;
75935;SDS011;64614;32.062;34.834;2023-09-30T05:25:24;29.77;;;17.80;;
75935;SDS011;64614;32.062;34.834;2023-09-30T05:28:29;28.27;;;17.23;;
75935;SDS011;64614;32.062;34.834;2023-09-30T05:31:34;28.15;;;17.17;;
75935;SDS011;64614;32.062;34.834;2023-09-30T05:34:40;25.08;;;15.38;;
75935;SDS011;64614;32.062;34.834;2023-09-30T05:37:47;24.80;;;16.33;;
75935;SDS011;64614;32.062;34.834;2023-09-30T05:40:14;23.05;;;13.05;;
75935;SDS011;64614;32.062;34.834;2023-09-30T05:42:56;18.48;;;10.15;;
75935;SDS011;64614;32.062;34.834;2023-09-30T05:45:23;20.58;;;9.45;;
75935;SDS011;64614;32.062;34.834;2023-09-30T05:47:49;18.15;;;8.40;;
75935;SDS011;64614;32.062;34.834;2023-09-30T05:50:17;18.50;;;8.45;;
75935;SDS011;64614;32.062;34.834;2023-09-30T05:52:49;19.02;;;8.02;;
75935;SDS011;64614;32.062;34.834;2023-09-30T05:55:16;16.70;;;8.63;;
75935;SDS011;64614;32.062;34.834;2023-09-30T05:57:45;13.93;;;7.70;;
75935;SDS011;64614;32.062;34.834;2023-09-30T06:00:15;13.75;;;6.75;;
75935;SDS011;64614;32.062;34.834;2023-09-30T06:02:55;13.18;;;6.40;;
75935;SDS011;64614;32.062;34.834;2023-09-30T06:05:22;13.00;;;5.80;;
75935;SDS011;64614;32.062;34.834;2023-09-30T06:07:48;13.88;;;5.63;;
75935;SDS011;64614;32.062;34.834;2023-09-30T06:10:14;12.18;;;5.72;;
75935;SDS011;64614;32.062;34.834;2023-09-30T06:12:44;11.80;;;5.10;;
75935;SDS011;64614;32.062;34.834;2023-09-30T06:15:11;10.60;;;5.05;;
75935;SDS011;64614;32.062;34.834;2023-09-30T06:17:38;11.40;;;5.10;;
75935;SDS011;64614;32.062;34.834;2023-09-30T06:20:05;11.45;;;5.43;;
75935;SDS011;64614;32.062;34.834;2023-09-30T06:22:41;11.07;;;4.43;;
75935;SDS011;64614;32.062;34.834;2023-09-30T06:25:08;10.52;;;4.20;;
75935;SDS011;64614;32.062;34.834;2023-09-30T06:27:34;8.80;;;4.38;;
75935;SDS011;64614;32.062;34.834;2023-09-30T06:30:00;9.88;;;3.92;;
75935;SDS011;64614;32.062;34.834;2023-09-30T06:32:25;9.30;;;3.88;;
75935;SDS011;64614;32.062;34.834;2023-09-30T06:34:51;9.20;;;3.58;;
75935;SDS011;64614;32.062;34.834;2023-09-30T06:37:18;10.65;;;4.35;;
75935;SDS011;64614;32.062;34.834;2023-09-30T06:39:43;8.05;;;3.70;;
75935;SDS011;64614;32.062;34.834;2023-09-30T06:42:09;10.30;;;3.30;;
75935;SDS011;64614;32.062;34.834;2023-09-30T06:44:35;7.50;;;3.45;;
75935;SDS011;64614;32.062;34.834;2023-09-30T06:47:00;8.15;;;3.40;;
75935;SDS011;64614;32.062;34.834;2023-09-30T06:49:26;6.53;;;3.10;;
75935;SDS011;64614;32.062;34.834;2023-09-30T06:51:51;10.20;;;3.67;;
75935;SDS011;64614;32.062;34.834;2023-09-30T06:54:17;8.35;;;3.58;;
75935;SDS011;64614;32.062;34.834;2023-09-30T06:56:43;7.30;;;3.15;;
75935;SDS011;64614;32.062;34.834;2023-09-30T06:59:08;9.43;;;3.20;;
75935;SDS011;64614;32.062;34.834;2023-09-30T07:01:34;8.30;;;3.42;;
75935;SDS011;64614;32.062;34.834;2023-09-30T07:03:59;8.02;;;2.97;;
75935;SDS011;64614;32.062;34.834;2023-09-30T07:06:26;5.57;;;2.60;;
75935;SDS011;64614;32.062;34.834;2023-09-30T07:08:52;8.52;;;3.00;;
75935;SDS011;64614;32.062;34.834;2023-09-30T07:11:30;6.30;;;2.80;;
75935;SDS011;64614;32.062;34.834;2023-09-30T07:16:24;8.43;;;3.05;;
75935;SDS011;64614;32.062;34.834;2023-09-30T07:18:49;7.93;;;3.00;;
75935;SDS011;64614;32.062;34.834;2023-09-30T07:21:18;7.03;;;2.83;;
75935;SDS011;64614;32.062;34.834;2023-09-30T07:23:43;6.22;;;2.50;;
75935;SDS011;64614;32.062;34.834;2023-09-30T07:26:09;5.60;;;2.60;;
75935;SDS011;64614;32.062;34.834;2023-09-30T07:28:35;7.75;;;2.80;;
75935;SDS011;64614;32.062;34.834;2023-09-30T07:31:00;5.93;;;2.60;;
75935;SDS011;64614;32.062;34.834;2023-09-30T07:33:26;8.02;;;3.42;;
75935;SDS011;64614;32.062;34.834;2023-09-30T07:35:52;6.20;;;2.83;;
75935;SDS011;64614;32.062;34.834;2023-09-30T07:38:17;7.07;;;2.47;;
75935;SDS011;64614;32.062;34.834;2023-09-30T07:40:43;6.70;;;2.58;;
75935;SDS011;64614;32.062;34.834;2023-09-30T07:43:09;6.05;;;2.47;;
75935;SDS011;64614;32.062;34.834;2023-09-30T07:45:35;5.50;;;2.50;;
75935;SDS011;64614;32.062;34.834;2023-09-30T07:48:01;6.32;;;2.67;;
75935;SDS011;64614;32.062;34.834;2023-09-30T07:50:30;5.35;;;2.40;;
75935;SDS011;64614;32.062;34.834;2023-09-30T07:52:56;4.40;;;2.20;;
75935;SDS011;64614;32.062;34.834;2023-09-30T07:55:23;5.28;;;2.20;;
75935;SDS011;64614;32.062;34.834;2023-09-30T07:57:49;5.68;;;2.42;;
75935;SDS011;64614;32.062;34.834;2023-09-30T08:00:16;4.85;;;2.38;;
75935;SDS011;64614;32.062;34.834;2023-09-30T08:02:42;5.97;;;2.40;;
75935;SDS011;64614;32.062;34.834;2023-09-30T08:05:08;4.97;;;2.40;;
75935;SDS011;64614;32.062;34.834;2023-09-30T08:07:34;4.50;;;2.10;;
75935;SDS011;64614;32.062;34.834;2023-09-30T08:10:01;5.63;;;2.40;;
75935;SDS011;64614;32.062;34.834;2023-09-30T08:12:30;4.28;;;2.05;;
75935;SDS011;64614;32.062;34.834;2023-09-30T08:14:55;5.28;;;2.28;;
75935;SDS011;64614;32.062;34.834;2023-09-30T08:17:21;4.90;;;2.10;;
75935;SDS011;64614;32.062;34.834;2023-09-30T08:19:47;4.13;;;1.90;;
75935;SDS011;64614;32.062;34.834;2023-09-30T08:22:13;3.97;;;2.00;;
75935;SDS011;64614;32.062;34.834;2023-09-30T08:24:39;4.60;;;2.15;;
75935;SDS011;64614;32.062;34.834;2023-09-30T08:27:05;5.70;;;2.10;;
75935;SDS011;64614;32.062;34.834;2023-09-30T08:29:34;3.97;;;1.98;;
75935;SDS011;64614;32.062;34.834;2023-09-30T08:32:03;5.75;;;2.10;;
75935;SDS011;64614;32.062;34.834;2023-09-30T08:34:29;3.50;;;1.85;;
75935;SDS011;64614;32.062;34.834;2023-09-30T08:36:55;4.78;;;1.92;;
75935;SDS011;64614;32.062;34.834;2023-09-30T08:39:22;5.18;;;2.20;;
75935;SDS011;64614;32.062;34.834;2023-09-30T08:41:49;4.25;;;2.13;;
75935;SDS011;64614;32.062;34.834;2023-09-30T08:44:15;5.47;;;1.98;;
75935;SDS011;64614;32.062;34.834;2023-09-30T08:46:41;4.50;;;2.38;;
75935;SDS011;64614;32.062;34.834;2023-09-30T08:49:07;3.33;;;1.83;;
75935;SDS011;64614;32.062;34.834;2023-09-30T08:51:33;4.68;;;2.00;;
75935;SDS011;64614;32.062;34.834;2023-09-30T08:54:00;7.50;;;2.15;;
75935;SDS011;64614;32.062;34.834;2023-09-30T08:56:29;4.68;;;1.70;;
75935;SDS011;64614;32.062;34.834;2023-09-30T08:58:58;5.57;;;1.98;;
75935;SDS011;64614;32.062;34.834;2023-09-30T09:01:25;4.75;;;2.20;;
75935;SDS011;64614;32.062;34.834;2023-09-30T09:03:55;4.57;;;1.98;;
75935;SDS011;64614;32.062;34.834;2023-09-30T09:06:22;5.07;;;2.00;;
75935;SDS011;64614;32.062;34.834;2023-09-30T09:08:49;6.15;;;2.10;;
75935;SDS011;64614;32.062;34.834;2023-09-30T09:11:16;4.25;;;1.92;;
75935;SDS011;64614;32.062;34.834;2023-09-30T09:13:51;5.70;;;2.30;;
75935;SDS011;64614;32.062;34.834;2023-09-30T09:16:21;4.88;;;2.10;;
75935;SDS011;64614;32.062;34.834;2023-09-30T09:18:48;4.57;;;2.00;;
75935;SDS011;64614;32.062;34.834;2023-09-30T09:21:16;4.97;;;2.10;;
75935;SDS011;64614;32.062;34.834;2023-09-30T09:23:43;7.63;;;1.98;;
75935;SDS011;64614;32.062;34.834;2023-09-30T09:28:59;4.43;;;1.90;;
75935;SDS011;64614;32.062;34.834;2023-09-30T09:31:27;3.22;;;1.83;;
75935;SDS011;64614;32.062;34.834;2023-09-30T09:33:54;3.67;;;1.73;;
75935;SDS011;64614;32.062;34.834;2023-09-30T09:36:20;4.90;;;1.90;;
75935;SDS011;64614;32.062;34.834;2023-09-30T09:38:49;6.05;;;2.13;;
75935;SDS011;64614;32.062;34.834;2023-09-30T09:41:19;7.38;;;2.45;;
75935;SDS011;64614;32.062;34.834;2023-09-30T09:43:45;6.90;;;2.30;;
75935;SDS011;64614;32.062;34.834;2023-09-30T09:46:14;6.53;;;2.08;;
75935;SDS011;64614;32.062;34.834;2023-09-30T09:48:42;5.25;;;2.10;;
75935;SDS011;64614;32.062;34.834;2023-09-30T09:51:11;6.60;;;2.30;;
75935;SDS011;64614;32.062;34.834;2023-09-30T09:53:40;5.47;;;2.03;;
75935;SDS011;64614;32.062;34.834;2023-09-30T09:56:10;3.80;;;1.88;;
75935;SDS011;64614;32.062;34.834;2023-09-30T09:58:38;10.68;;;2.58;;
75935;SDS011;64614;32.062;34.834;2023-09-30T10:01:07;6.57;;;2.45;;
75935;SDS011;64614;32.062;34.834;2023-09-30T10:03:35;8.52;;;2.60;;
75935;SDS011;64614;32.062;34.834;2023-09-30T10:06:02;8.40;;;2.22;;
75935;SDS011;64614;32.062;34.834;2023-09-30T10:08:37;6.28;;;1.85;;
75935;SDS011;64614;32.062;34.834;2023-09-30T10:11:20;8.38;;;2.38;;
75935;SDS011;64614;32.062;34.834;2023-09-30T10:13:58;10.35;;;2.25;;
75935;SDS011;64614;32.062;34.834;2023-09-30T10:19:11;6.93;;;2.22;;
75935;SDS011;64614;32.062;34.834;2023-09-30T10:24:58;4.30;;;2.10;;
75935;SDS011;64614;32.062;34.834;2023-09-30T10:30:05;6.55;;;2.30;;
75935;SDS011;64614;32.062;34.834;2023-09-30T10:40:55;5.22;;;1.90;;
75935;SDS011;64614;32.062;34.834;2023-09-30T10:43:34;3.97;;;1.85;;
75935;SDS011;64614;32.062;34.834;2023-09-30T10:48:52;5.40;;;1.95;;
75935;SDS011;64614;32.062;34.834;2023-09-30T10:51:21;5.35;;;2.13;;
75935;SDS011;64614;32.062;34.834;2023-09-30T10:56:16;5.70;;;1.90;;
75935;SDS011;64614;32.062;34.834;2023-09-30T10:58:50;4.57;;;1.73;;
75935;SDS011;64614;32.062;34.834;2023-09-30T11:01:20;4.45;;;1.58;;
75935;SDS011;64614;32.062;34.834;2023-09-30T11:03:48;6.18;;;1.98;;
75935;SDS011;64614;32.062;34.834;2023-09-30T11:06:17;4.25;;;1.65;;
75935;SDS011;64614;32.062;34.834;2023-09-30T11:08:53;4.85;;;1.60;;
75935;SDS011;64614;32.062;34.834;2023-09-30T11:11:41;3.70;;;1.73;;
75935;SDS011;64614;32.062;34.834;2023-09-30T11:16:49;4.85;;;1.80;;
75935;SDS011;64614;32.062;34.834;2023-09-30T11:19:15;3.28;;;1.85;;
75935;SDS011;64614;32.062;34.834;2023-09-30T11:21:42;4.32;;;1.75;;
75935;SDS011;64614;32.062;34.834;2023-09-30T11:24:09;3.97;;;1.63;;
75935;SDS011;64614;32.062;34.834;2023-09-30T11:26:35;2.95;;;1.60;;
75935;SDS011;64614;32.062;34.834;2023-09-30T11:29:05;2.22;;;1.20;;
75935;SDS011;64614;32.062;34.834;2023-09-30T11:31:31;3.20;;;1.60;;
75935;SDS011;64614;32.062;34.834;2023-09-30T11:33:59;1.95;;;1.30;;
75935;SDS011;64614;32.062;34.834;2023-09-30T11:36:29;3.13;;;1.30;;
75935;SDS011;64614;32.062;34.834;2023-09-30T11:38:59;1.73;;;1.30;;
75935;SDS011;64614;32.062;34.834;2023-09-30T11:44:00;1.77;;;1.30;;
75935;SDS011;64614;32.062;34.834;2023-09-30T11:46:30;2.05;;;1.35;;
75935;SDS011;64614;32.062;34.834;2023-09-30T11:48:59;2.65;;;1.30;;
75935;SDS011;64614;32.062;34.834;2023-09-30T11:51:27;1.95;;;1.30;;
75935;SDS011;64614;32.062;34.834;2023-09-30T11:53:53;1.33;;;1.20;;
75935;SDS011;64614;32.062;34.834;2023-09-30T11:56:21;1.60;;;1.10;;
75935;SDS011;64614;32.062;34.834;2023-09-30T11:58:53;2.00;;;1.23;;
75935;SDS011;64614;32.062;34.834;2023-09-30T12:01:19;1.48;;;1.10;;
75935;SDS011;64614;32.062;34.834;2023-09-30T12:03:47;2.08;;;1.20;;
75935;SDS011;64614;32.062;34.834;2023-09-30T12:06:13;1.83;;;1.10;;
75935;SDS011;64614;32.062;34.834;2023-09-30T12:08:42;1.70;;;1.10;;
75935;SDS011;64614;32.062;34.834;2023-09-30T12:11:08;1.40;;;1.20;;
75935;SDS011;64614;32.062;34.834;2023-09-30T12:13:38;2.00;;;1.30;;
75935;SDS011;64614;32.062;34.834;2023-09-30T12:16:04;1.45;;;0.90;;
75935;SDS011;64614;32.062;34.834;2023-09-30T12:18:30;1.27;;;1.10;;
75935;SDS011;64614;32.062;34.834;2023-09-30T12:20:55;1.83;;;1.20;;
75935;SDS011;64614;32.062;34.834;2023-09-30T12:23:21;1.50;;;1.08;;
75935;SDS011;64614;32.062;34.834;2023-09-30T12:25:47;1.10;;;1.00;;
75935;SDS011;64614;32.062;34.834;2023-09-30T12:28:13;1.20;;;1.05;;
75935;SDS011;64614;32.062;34.834;2023-09-30T12:30:40;1.75;;;1.00;;
75935;SDS011;64614;32.062;34.834;2023-09-30T12:33:06;1.58;;;1.02;;
75935;SDS011;64614;32.062;34.834;2023-09-30T12:35:33;1.33;;;1.00;;
75935;SDS011;64614;32.062;34.834;2023-09-30T12:37:59;2.17;;;1.27;;
75935;SDS011;64614;32.062;34.834;2023-09-30T12:40:25;1.10;;;1.00;;
75935;SDS011;64614;32.062;34.834;2023-09-30T12:42:50;1.48;;;1.08;;
75935;SDS011;64614;32.062;34.834;2023-09-30T12:45:16;1.35;;;1.23;;
75935;SDS011;64614;32.062;34.834;2023-09-30T12:47:43;2.05;;;1.13;;
75935;SDS011;64614;32.062;34.834;2023-09-30T12:50:09;3.00;;;1.13;;
75935;SDS011;64614;32.062;34.834;2023-09-30T12:52:35;2.85;;;1.17;;
75935;SDS011;64614;32.062;34.834;2023-09-30T12:55:03;1.90;;;1.10;;
75935;SDS011;64614;32.062;34.834;2023-09-30T12:57:29;2.08;;;1.10;;
75935;SDS011;64614;32.062;34.834;2023-09-30T12:59:55;2.33;;;1.17;;
75935;SDS011;64614;32.062;34.834;2023-09-30T13:02:22;2.83;;;1.10;;
75935;SDS011;64614;32.062;34.834;2023-09-30T13:04:48;3.25;;;1.00;;
75935;SDS011;64614;32.062;34.834;2023-09-30T13:07:14;3.45;;;1.15;;
75935;SDS011;64614;32.062;34.834;2023-09-30T13:09:40;2.22;;;1.10;;
75935;SDS011;64614;32.062;34.834;2023-09-30T13:12:07;1.35;;;1.00;;
75935;SDS011;64614;32.062;34.834;2023-09-30T13:14:33;3.35;;;1.10;;
75935;SDS011;64614;32.062;34.834;2023-09-30T13:16:59;2.97;;;1.20;;
75935;SDS011;64614;32.062;34.834;2023-09-30T13:19:26;1.33;;;1.00;;
75935;SDS011;64614;32.062;34.834;2023-09-30T13:21:52;2.05;;;1.20;;
75935;SDS011;64614;32.062;34.834;2023-09-30T13:24:21;2.03;;;1.02;;
75935;SDS011;64614;32.062;34.834;2023-09-30T13:26:47;2.83;;;1.10;;
75935;SDS011;64614;32.062;34.834;2023-09-30T13:29:15;2.45;;;1.20;;
75935;SDS011;64614;32.062;34.834;2023-09-30T13:31:42;3.17;;;1.10;;
75935;SDS011;64614;32.062;34.834;2023-09-30T13:34:08;3.55;;;1.02;;
75935;SDS011;64614;32.062;34.834;2023-09-30T13:36:34;3.13;;;1.10;;
75935;SDS011;64614;32.062;34.834;2023-09-30T13:39:00;3.50;;;1.10;;
75935;SDS011;64614;32.062;34.834;2023-09-30T13:41:26;1.55;;;1.10;;
75935;SDS011;64614;32.062;34.834;2023-09-30T13:43:52;3.85;;;1.23;;
75935;SDS011;64614;32.062;34.834;2023-09-30T13:46:18;3.10;;;1.10;;
75935;SDS011;64614;32.062;34.834;2023-09-30T13:48:44;2.83;;;1.20;;
75935;SDS011;64614;32.062;34.834;2023-09-30T13:51:09;4.60;;;1.30;;
75935;SDS011;64614;32.062;34.834;2023-09-30T13:53:38;3.10;;;1.10;;
75935;SDS011;64614;32.062;34.834;2023-09-30T13:56:04;5.32;;;1.10;;
75935;SDS011;64614;32.062;34.834;2023-09-30T13:58:31;3.53;;;1.20;;
75935;SDS011;64614;32.062;34.834;2023-09-30T14:00:57;2.55;;;1.15;;
75935;SDS011;64614;32.062;34.834;2023-09-30T14:03:23;3.58;;;1.38;;
75935;SDS011;64614;32.062;34.834;2023-09-30T14:05:51;3.47;;;1.20;;
75935;SDS011;64614;32.062;34.834;2023-09-30T14:08:18;4.75;;;1.70;;
75935;SDS011;64614;32.062;34.834;2023-09-30T14:10:44;4.10;;;1.45;;
75935;SDS011;64614;32.062;34.834;2023-09-30T14:13:10;5.93;;;1.83;;
75935;SDS011;64614;32.062;34.834;2023-09-30T14:15:36;4.07;;;1.58;;
75935;SDS011;64614;32.062;34.834;2023-09-30T14:18:02;4.97;;;2.20;;
75935;SDS011;64614;32.062;34.834;2023-09-30T14:20:29;6.18;;;2.20;;
75935;SDS011;64614;32.062;34.834;2023-09-30T14:22:55;6.80;;;2.40;;
75935;SDS011;64614;32.062;34.834;2023-09-30T14:25:21;4.78;;;2.15;;
75935;SDS011;64614;32.062;34.834;2023-09-30T14:27:47;5.57;;;2.38;;
75935;SDS011;64614;32.062;34.834;2023-09-30T14:30:13;5.10;;;2.30;;
75935;SDS011;64614;32.062;34.834;2023-09-30T14:32:39;3.95;;;2.17;;
75935;SDS011;64614;32.062;34.834;2023-09-30T14:35:06;5.25;;;2.15;;
75935;SDS011;64614;32.062;34.834;2023-09-30T14:37:32;4.82;;;2.05;;
75935;SDS011;64614;32.062;34.834;2023-09-30T14:39:57;4.65;;;1.80;;
75935;SDS011;64614;32.062;34.834;2023-09-30T14:42:23;5.40;;;2.20;;
75935;SDS011;64614;32.062;34.834;2023-09-30T14:44:49;5.57;;;1.90;;
75935;SDS011;64614;32.062;34.834;2023-09-30T14:47:14;4.05;;;1.80;;
75935;SDS011;64614;32.062;34.834;2023-09-30T14:49:40;7.65;;;2.10;;
75935;SDS011;64614;32.062;34.834;2023-09-30T14:52:06;4.63;;;2.28;;
75935;SDS011;64614;32.062;34.834;2023-09-30T14:54:32;4.93;;;2.08;;
75935;SDS011;64614;32.062;34.834;2023-09-30T14:56:58;6.60;;;2.33;;
75935;SDS011;64614;32.062;34.834;2023-09-30T14:59:23;6.28;;;2.10;;
75935;SDS011;64614;32.062;34.834;2023-09-30T15:01:49;5.95;;;2.15;;
75935;SDS011;64614;32.062;34.834;2023-09-30T15:04:15;5.70;;;2.20;;
75935;SDS011;64614;32.062;34.834;2023-09-30T15:06:41;4.55;;;1.98;;
75935;SDS011;64614;32.062;34.834;2023-09-30T15:09:07;7.32;;;2.40;;
75935;SDS011;64614;32.062;34.834;2023-09-30T15:11:36;5.70;;;1.90;;
75935;SDS011;64614;32.062;34.834;2023-09-30T15:14:03;6.68;;;2.08;;
75935;SDS011;64614;32.062;34.834;2023-09-30T15:16:31;4.38;;;2.08;;
75935;SDS011;64614;32.062;34.834;2023-09-30T15:18:57;3.90;;;2.00;;
75935;SDS011;64614;32.062;34.834;2023-09-30T15:21:23;5.53;;;2.13;;
75935;SDS011;64614;32.062;34.834;2023-09-30T15:23:49;6.10;;;1.98;;
75935;SDS011;64614;32.062;34.834;2023-09-30T15:26:15;5.60;;;2.20;;